Time;durP1;ratioP1;P1;durP2;ratioP2;P2;SDS_P1;SDS_P2;PMS_P1;PMS_P2;Temp;Humidity;BMP_temperature;BMP_pressure;BME280_temperature;BME280_humidity;BME280_pressure;Samples;Min_cycle;Max_cycle;Signal;HPM_P1;HPM_P2
2021/10/16 00:00:58;;;;;;;8.45;1.70;;;10.00;99.90;;;;;;5018645;28;20041;-73
2021/10/16 00:03:24;;;;;;;9.20;2.00;;;10.00;99.90;;;;;;5009722;28;20033;-72
2021/10/16 00:05:50;;;;;;;8.10;1.90;;;10.00;99.90;;;;;;5013285;28;20031;-72
2021/10/16 00:08:15;;;;;;;8.30;2.40;;;10.00;99.90;;;;;;5013463;28;20025;-73
2021/10/16 00:10:41;;;;;;;9.55;1.55;;;10.00;99.90;;;;;;5012033;28;20022;-73
2021/10/16 00:13:07;;;;;;;5.68;1.38;;;10.00;99.90;;;;;;5007501;28;20035;-73
2021/10/16 00:15:33;;;;;;;10.15;1.58;;;10.00;99.90;;;;;;5005316;28;20124;-73
2021/10/16 00:17:59;;;;;;;8.65;2.00;;;10.00;99.90;;;;;;5015517;28;20026;-73
2021/10/16 00:20:25;;;;;;;8.18;1.27;;;10.00;99.90;;;;;;5009608;28;20033;-73
2021/10/16 00:22:51;;;;;;;9.93;1.98;;;10.10;99.90;;;;;;5002085;28;20487;-72
2021/10/16 00:25:17;;;;;;;8.25;1.92;;;10.10;99.90;;;;;;5021382;28;20025;-73
2021/10/16 00:27:42;;;;;;;6.13;1.80;;;10.10;99.90;;;;;;5011595;28;20480;-73
2021/10/16 00:30:09;;;;;;;9.88;1.98;;;10.10;99.90;;;;;;5014009;28;20034;-73
2021/10/16 00:32:35;;;;;;;7.82;2.00;;;10.10;99.90;;;;;;5001196;28;20500;-73
2021/10/16 00:35:01;;;;;;;6.43;1.73;;;10.10;99.90;;;;;;5009600;28;20056;-71
2021/10/16 00:37:27;;;;;;;6.93;1.58;;;10.10;99.90;;;;;;5005687;28;20022;-73
2021/10/16 00:39:54;;;;;;;8.02;1.45;;;10.10;99.90;;;;;;5009106;28;20029;-73
2021/10/16 00:42:21;;;;;;;4.13;1.38;;;10.10;99.90;;;;;;5007275;28;20101;-73
2021/10/16 00:44:48;;;;;;;5.32;1.13;;;10.20;99.90;;;;;;5020553;28;20025;-73
2021/10/16 00:47:14;;;;;;;5.65;1.30;;;10.20;99.90;;;;;;5017209;28;20023;-73
2021/10/16 00:49:39;;;;;;;10.50;1.58;;;10.20;99.90;;;;;;5015591;28;20674;-73
2021/10/16 00:52:06;;;;;;;8.18;1.98;;;10.20;99.90;;;;;;5012433;28;20022;-73
2021/10/16 00:54:32;;;;;;;7.93;1.40;;;10.30;99.90;;;;;;5017053;28;20116;-73
2021/10/16 00:57:00;;;;;;;7.95;2.08;;;10.20;99.90;;;;;;5025124;28;20101;-73
2021/10/16 00:59:26;;;;;;;10.80;2.80;;;10.20;99.90;;;;;;5005332;28;20087;-72
2021/10/16 01:01:52;;;;;;;8.65;2.35;;;10.20;99.90;;;;;;5008809;28;20030;-73
2021/10/16 01:04:17;;;;;;;7.22;1.70;;;10.20;99.90;;;;;;5002865;28;20176;-72
2021/10/16 01:06:44;;;;;;;9.82;1.80;;;10.20;99.90;;;;;;5023381;28;20017;-73
2021/10/16 01:09:10;;;;;;;6.90;2.03;;;10.20;99.90;;;;;;5013155;28;20078;-73
2021/10/16 01:11:47;;;;;;;12.82;2.20;;;10.20;99.90;;;;;;5014258;28;20026;-72
2021/10/16 01:14:13;;;;;;;8.80;1.70;;;10.20;99.90;;;;;;5005608;28;20125;-72
2021/10/16 01:16:42;;;;;;;9.20;1.92;;;10.20;99.90;;;;;;5006683;28;20022;-72
2021/10/16 01:19:11;;;;;;;7.00;1.95;;;10.20;99.90;;;;;;5015781;28;20029;-73
2021/10/16 01:21:41;;;;;;;5.70;1.42;;;10.20;99.90;;;;;;5005276;28;20034;-74
2021/10/16 01:24:12;;;;;;;6.70;1.55;;;10.10;99.90;;;;;;5003940;28;20029;-74
2021/10/16 01:26:40;;;;;;;4.97;1.70;;;10.10;99.90;;;;;;5003445;28;20044;-72
2021/10/16 01:29:13;;;;;;;8.23;1.55;;;10.10;99.90;;;;;;5005899;28;20040;-72
2021/10/16 01:31:40;;;;;;;7.95;1.85;;;10.10;99.90;;;;;;5012638;28;20026;-72
2021/10/16 01:34:06;;;;;;;4.32;1.42;;;10.10;99.90;;;;;;5015474;28;20559;-72
2021/10/16 01:36:46;;;;;;;6.03;1.45;;;10.10;99.90;;;;;;5014246;28;20037;-73
2021/10/16 01:39:13;;;;;;;7.43;1.67;;;10.10;99.90;;;;;;5014065;28;20038;-72
2021/10/16 01:41:40;;;;;;;12.90;1.98;;;10.10;99.90;;;;;;5012250;28;20083;-72
2021/10/16 01:44:07;;;;;;;7.57;1.80;;;10.10;99.90;;;;;;5020570;28;20041;-72
2021/10/16 01:46:33;;;;;;;8.18;2.00;;;10.10;99.90;;;;;;5005039;28;20018;-72
2021/10/16 01:48:59;;;;;;;7.10;1.55;;;10.00;99.90;;;;;;5014133;28;20060;-73
2021/10/16 01:51:25;;;;;;;10.23;2.10;;;10.00;99.90;;;;;;5006827;28;20436;-72
2021/10/16 01:53:51;;;;;;;8.50;1.90;;;10.00;99.90;;;;;;5004027;28;20058;-72
2021/10/16 01:56:17;;;;;;;7.57;1.67;;;9.90;99.90;;;;;;5011319;28;20026;-71
2021/10/16 01:58:43;;;;;;;8.57;1.63;;;9.90;99.90;;;;;;5008120;28;20035;-72
2021/10/16 02:01:08;;;;;;;6.95;1.38;;;9.80;99.90;;;;;;4995920;28;20085;-72
2021/10/16 02:03:34;;;;;;;6.63;1.75;;;9.80;99.90;;;;;;5020797;28;20503;-72
2021/10/16 02:06:00;;;;;;;8.60;1.67;;;9.80;99.90;;;;;;5012167;28;20096;-72
2021/10/16 02:08:25;;;;;;;4.85;1.50;;;9.70;99.90;;;;;;5007894;28;20025;-72
2021/10/16 02:10:51;;;;;;;4.68;1.65;;;9.70;99.90;;;;;;5003662;28;20104;-72
2021/10/16 02:13:17;;;;;;;7.57;1.75;;;9.70;99.90;;;;;;5004193;28;20476;-73
2021/10/16 02:15:42;;;;;;;9.85;2.50;;;9.70;99.90;;;;;;5008909;28;20084;-72
2021/10/16 02:18:08;;;;;;;6.63;2.47;;;9.60;99.90;;;;;;5012133;28;20037;-72
2021/10/16 02:20:34;;;;;;;8.98;2.50;;;9.60;99.90;;;;;;5006167;28;20061;-72
2021/10/16 02:23:00;;;;;;;7.03;2.05;;;9.60;99.90;;;;;;5009930;28;20033;-72
2021/10/16 02:25:26;;;;;;;6.30;2.63;;;9.60;99.90;;;;;;5004659;28;20030;-72
2021/10/16 02:27:52;;;;;;;10.75;2.80;;;9.70;99.90;;;;;;5001997;28;20018;-72
2021/10/16 02:30:18;;;;;;;6.90;2.25;;;9.70;99.90;;;;;;5007163;28;20026;-72
2021/10/16 02:32:43;;;;;;;10.18;2.85;;;9.70;99.90;;;;;;5012747;28;20025;-73
2021/10/16 02:35:09;;;;;;;7.95;2.97;;;9.80;99.90;;;;;;5011046;28;20034;-72
2021/10/16 02:37:35;;;;;;;9.40;2.50;;;9.80;99.90;;;;;;5014036;28;20087;-73
2021/10/16 02:40:01;;;;;;;10.88;2.65;;;9.80;99.90;;;;;;5016328;28;20028;-72
2021/10/16 02:42:28;;;;;;;12.88;3.40;;;9.80;99.90;;;;;;5019145;28;20030;-73
2021/10/16 02:44:56;;;;;;;8.63;2.40;;;9.90;99.90;;;;;;5001286;28;20485;-72
2021/10/16 02:47:23;;;;;;;6.55;1.90;;;9.90;99.90;;;;;;5010707;28;20092;-73
2021/10/16 02:49:48;;;;;;;5.13;2.38;;;9.90;99.90;;;;;;5011452;28;20022;-72
2021/10/16 02:52:14;;;;;;;6.82;2.83;;;9.90;99.90;;;;;;5010110;28;20036;-73
2021/10/16 02:54:40;;;;;;;10.82;2.58;;;9.90;99.90;;;;;;5006155;28;20055;-72
2021/10/16 02:57:06;;;;;;;10.18;2.50;;;9.90;99.90;;;;;;5004365;28;20124;-72
2021/10/16 02:59:31;;;;;;;7.65;2.55;;;9.90;99.90;;;;;;5004178;28;20076;-72
2021/10/16 03:01:57;;;;;;;8.25;2.33;;;9.90;99.90;;;;;;5011511;28;20030;-72
2021/10/16 03:04:23;;;;;;;6.05;2.42;;;9.90;99.90;;;;;;5018098;28;20101;-72
2021/10/16 03:06:49;;;;;;;10.63;3.13;;;9.90;99.90;;;;;;5011205;28;20395;-73
2021/10/16 03:09:17;;;;;;;7.03;2.53;;;9.90;99.90;;;;;;5003037;28;20051;-72
2021/10/16 03:11:43;;;;;;;6.88;2.60;;;9.90;99.90;;;;;;5019117;28;20037;-73
2021/10/16 03:14:09;;;;;;;5.55;1.90;;;9.90;99.90;;;;;;5004181;28;20488;-72
2021/10/16 03:16:34;;;;;;;6.22;2.03;;;9.90;99.90;;;;;;5005081;28;20044;-73
2021/10/16 03:19:00;;;;;;;9.63;2.70;;;9.90;99.90;;;;;;5006118;28;20421;-73
2021/10/16 03:21:26;;;;;;;5.57;2.60;;;9.90;99.90;;;;;;5000191;28;20041;-73
2021/10/16 03:23:52;;;;;;;7.90;2.42;;;9.90;99.90;;;;;;5005791;28;20026;-73
2021/10/16 03:26:17;;;;;;;9.52;2.45;;;9.90;99.90;;;;;;5007317;28;20124;-73
2021/10/16 03:28:43;;;;;;;13.13;2.78;;;9.80;99.90;;;;;;4996999;28;20031;-74
2021/10/16 03:31:09;;;;;;;10.73;2.70;;;9.80;99.90;;;;;;5005903;28;20504;-73
2021/10/16 03:33:34;;;;;;;7.13;2.25;;;9.80;99.90;;;;;;4997820;28;20053;-72
2021/10/16 03:36:03;;;;;;;9.48;2.85;;;9.80;99.90;;;;;;5001800;28;20045;-72
2021/10/16 03:38:29;;;;;;;8.95;2.13;;;9.70;99.90;;;;;;4999549;28;20026;-71
2021/10/16 03:40:54;;;;;;;10.88;2.70;;;9.70;99.90;;;;;;5005340;28;20032;-72
2021/10/16 03:43:21;;;;;;;6.53;1.85;;;9.60;99.90;;;;;;5003796;28;20034;-73
2021/10/16 03:45:47;;;;;;;5.65;2.13;;;9.60;99.90;;;;;;5015937;28;20035;-72
2021/10/16 03:48:12;;;;;;;8.57;2.83;;;9.70;99.90;;;;;;5011774;28;20022;-72
2021/10/16 03:50:38;;;;;;;7.95;2.88;;;9.70;99.90;;;;;;4998567;28;20105;-72
2021/10/16 03:53:04;;;;;;;8.35;2.72;;;9.70;99.90;;;;;;5011714;28;20053;-73
2021/10/16 03:55:30;;;;;;;10.57;2.67;;;9.70;99.90;;;;;;5004868;28;20026;-72
2021/10/16 03:57:55;;;;;;;7.50;2.28;;;9.70;99.90;;;;;;5009521;28;20041;-72
2021/10/16 04:00:21;;;;;;;8.98;2.42;;;9.70;99.90;;;;;;5010769;28;20084;-72
2021/10/16 04:02:49;;;;;;;5.90;1.75;;;9.70;99.90;;;;;;5003103;28;20021;-73
2021/10/16 04:05:14;;;;;;;9.60;2.60;;;9.60;99.90;;;;;;5001024;28;20026;-73
2021/10/16 04:07:41;;;;;;;6.88;2.10;;;9.60;99.90;;;;;;5005742;28;20041;-72
2021/10/16 04:10:08;;;;;;;7.93;2.40;;;9.50;99.90;;;;;;5006669;28;20480;-73
2021/10/16 04:12:34;;;;;;;8.95;2.42;;;9.50;99.90;;;;;;5014920;28;20026;-73
2021/10/16 04:15:00;;;;;;;6.95;2.22;;;9.50;99.90;;;;;;5007011;28;20516;-72
2021/10/16 04:17:25;;;;;;;7.75;2.38;;;9.50;99.90;;;;;;5021099;28;20033;-72
2021/10/16 04:19:51;;;;;;;6.47;2.30;;;9.40;99.90;;;;;;5006318;28;20061;-71
2021/10/16 04:22:17;;;;;;;9.48;3.05;;;9.40;99.90;;;;;;4997463;28;20034;-71
2021/10/16 04:24:43;;;;;;;12.35;3.08;;;9.40;99.90;;;;;;5012345;28;20037;-73
2021/10/16 04:27:08;;;;;;;11.27;2.75;;;9.40;99.90;;;;;;5015618;28;20030;-71
2021/10/16 04:29:34;;;;;;;10.35;2.53;;;9.30;99.90;;;;;;5011774;28;20507;-71
2021/10/16 04:32:00;;;;;;;11.10;3.35;;;9.40;99.90;;;;;;5008403;28;20122;-71
2021/10/16 04:34:26;;;;;;;7.78;2.28;;;9.40;99.90;;;;;;5012102;28;20112;-71
2021/10/16 04:36:51;;;;;;;7.45;2.50;;;9.40;99.90;;;;;;5018992;28;20478;-72
2021/10/16 04:39:17;;;;;;;7.68;2.70;;;9.30;99.90;;;;;;5003278;28;20026;-71
2021/10/16 04:41:43;;;;;;;9.25;2.80;;;9.30;99.90;;;;;;5003254;28;20104;-72
2021/10/16 04:44:09;;;;;;;9.32;2.88;;;9.30;99.90;;;;;;4999778;28;20101;-71
2021/10/16 04:46:34;;;;;;;6.68;3.05;;;9.30;99.90;;;;;;5005984;28;20030;-71
2021/10/16 04:49:01;;;;;;;7.65;2.33;;;9.20;99.90;;;;;;5012821;28;20030;-71
2021/10/16 04:51:27;;;;;;;7.40;2.70;;;9.30;99.90;;;;;;4999146;28;20030;-71
2021/10/16 04:53:52;;;;;;;7.88;2.20;;;9.20;99.90;;;;;;5015072;28;20096;-71
2021/10/16 04:56:18;;;;;;;7.05;2.53;;;9.20;99.90;;;;;;5003316;28;20511;-71
2021/10/16 04:58:44;;;;;;;11.43;2.20;;;9.30;99.90;;;;;;5008668;28;20073;-71
2021/10/16 05:01:09;;;;;;;12.63;2.35;;;9.30;99.90;;;;;;5014332;28;20503;-73
2021/10/16 05:03:35;;;;;;;6.65;2.42;;;9.30;99.90;;;;;;5009045;28;20085;-71
2021/10/16 05:06:01;;;;;;;7.50;2.45;;;9.20;99.90;;;;;;5003498;28;20025;-71
2021/10/16 05:08:28;;;;;;;7.70;2.42;;;9.30;99.90;;;;;;5018549;28;20052;-71
2021/10/16 05:10:53;;;;;;;8.90;2.22;;;9.20;99.90;;;;;;5021447;28;20022;-71
2021/10/16 05:13:19;;;;;;;5.40;2.08;;;9.20;99.90;;;;;;5015330;28;20126;-71
2021/10/16 05:15:45;;;;;;;6.82;2.15;;;9.20;99.90;;;;;;5004268;28;20096;-71
2021/10/16 05:18:11;;;;;;;6.28;1.77;;;9.20;99.90;;;;;;5014795;28;20033;-72
2021/10/16 05:20:36;;;;;;;8.85;2.17;;;9.10;99.90;;;;;;5013565;28;20484;-73
2021/10/16 05:23:02;;;;;;;8.90;2.10;;;9.10;99.90;;;;;;5017857;28;20571;-71
2021/10/16 05:25:28;;;;;;;2.60;1.50;;;9.10;99.90;;;;;;5001935;28;20496;-71
2021/10/16 05:27:53;;;;;;;6.70;1.90;;;9.10;99.90;;;;;;5015198;28;20018;-71
2021/10/16 05:30:19;;;;;;;5.88;2.03;;;9.10;99.90;;;;;;5004387;28;20018;-72
2021/10/16 05:32:45;;;;;;;7.38;1.73;;;9.00;99.90;;;;;;5005541;28;20523;-71
2021/10/16 05:35:11;;;;;;;6.93;2.00;;;9.00;99.90;;;;;;5011507;28;20033;-72
2021/10/16 05:37:37;;;;;;;9.82;1.83;;;9.00;99.90;;;;;;5006202;28;20505;-71
2021/10/16 05:40:03;;;;;;;12.23;2.40;;;9.00;99.90;;;;;;5010110;28;20030;-71
2021/10/16 05:42:29;;;;;;;8.70;2.13;;;8.90;99.90;;;;;;5002911;28;20034;-72
2021/10/16 05:44:55;;;;;;;8.75;2.10;;;8.90;99.90;;;;;;4998175;28;20018;-71
2021/10/16 05:47:21;;;;;;;8.10;2.40;;;8.90;99.90;;;;;;5005259;28;20030;-71
2021/10/16 05:49:47;;;;;;;4.13;1.83;;;8.90;99.90;;;;;;5006037;28;20029;-71
2021/10/16 05:52:13;;;;;;;7.13;1.80;;;8.80;99.90;;;;;;5008119;28;20041;-71
2021/10/16 05:54:38;;;;;;;6.68;1.90;;;8.90;99.90;;;;;;5009259;28;20025;-71
2021/10/16 05:57:04;;;;;;;3.95;1.70;;;8.80;99.90;;;;;;5013482;28;20026;-71
2021/10/16 05:59:30;;;;;;;6.25;2.45;;;8.80;99.90;;;;;;4999977;28;20038;-72
2021/10/16 06:01:55;;;;;;;6.60;2.20;;;8.90;99.90;;;;;;5005039;28;20068;-71
2021/10/16 06:04:24;;;;;;;4.55;2.05;;;8.90;99.90;;;;;;5016804;28;20025;-71
2021/10/16 06:06:53;;;;;;;9.07;2.35;;;8.80;99.90;;;;;;4998882;28;20444;-72
2021/10/16 06:09:18;;;;;;;9.52;2.10;;;8.80;99.90;;;;;;5002618;28;20028;-71
2021/10/16 06:11:44;;;;;;;7.13;1.90;;;8.80;99.90;;;;;;5003754;28;20112;-71
2021/10/16 06:14:10;;;;;;;8.93;2.00;;;8.80;99.90;;;;;;5006875;28;20068;-71
2021/10/16 06:16:36;;;;;;;7.53;2.42;;;8.80;99.90;;;;;;5007404;28;20022;-71
2021/10/16 06:19:04;;;;;;;7.63;2.33;;;8.80;99.90;;;;;;5014505;28;20030;-71
2021/10/16 06:21:31;;;;;;;7.32;2.17;;;8.80;99.90;;;;;;5010007;28;20029;-71
2021/10/16 06:23:56;;;;;;;6.68;2.10;;;8.80;99.90;;;;;;5001960;28;20028;-72
2021/10/16 06:26:22;;;;;;;9.52;2.75;;;8.80;99.90;;;;;;4998873;28;20045;-71
2021/10/16 06:28:48;;;;;;;4.25;2.00;;;8.80;99.90;;;;;;5003484;28;20032;-71
2021/10/16 06:31:14;;;;;;;9.02;2.50;;;8.80;99.90;;;;;;5010180;28;20034;-71
2021/10/16 06:33:40;;;;;;;4.28;1.80;;;8.90;99.90;;;;;;5012069;28;20038;-71
2021/10/16 06:36:06;;;;;;;5.78;2.05;;;8.90;99.90;;;;;;5008676;28;20533;-72
2021/10/16 06:38:31;;;;;;;7.28;2.30;;;9.00;99.90;;;;;;5014892;28;20026;-71
2021/10/16 06:40:58;;;;;;;3.60;2.00;;;9.10;99.90;;;;;;5009379;28;20029;-72
2021/10/16 06:43:24;;;;;;;3.75;2.08;;;9.20;99.90;;;;;;5016070;28;20480;-71
2021/10/16 06:45:50;;;;;;;7.28;2.35;;;9.20;99.90;;;;;;5016740;28;20030;-71
2021/10/16 06:48:16;;;;;;;8.70;2.85;;;9.30;99.90;;;;;;5006146;28;20483;-71
2021/10/16 06:50:42;;;;;;;6.97;2.83;;;9.30;99.90;;;;;;5006940;28;20513;-71
2021/10/16 06:53:08;;;;;;;8.07;2.45;;;9.30;99.90;;;;;;4998453;28;20037;-72
2021/10/16 06:55:34;;;;;;;5.20;2.22;;;9.30;99.90;;;;;;5017795;28;20373;-71
2021/10/16 06:57:59;;;;;;;7.00;2.72;;;9.40;99.90;;;;;;5013631;28;20087;-71
2021/10/16 07:00:25;;;;;;;6.53;2.05;;;9.40;99.90;;;;;;5010480;28;20053;-72
2021/10/16 07:02:51;;;;;;;7.25;2.40;;;9.40;99.90;;;;;;4997464;28;20033;-71
2021/10/16 07:05:17;;;;;;;6.35;2.00;;;9.50;99.90;;;;;;5018722;28;20038;-71
2021/10/16 07:07:43;;;;;;;5.75;2.50;;;9.50;99.90;;;;;;5013986;28;20444;-70
2021/10/16 07:10:09;;;;;;;7.55;2.28;;;9.50;99.90;;;;;;5015313;28;20113;-71
2021/10/16 07:12:35;;;;;;;12.55;2.58;;;9.50;99.90;;;;;;5016651;28;20030;-71
2021/10/16 07:15:03;;;;;;;6.70;1.90;;;9.50;99.90;;;;;;5006200;28;20033;-73
2021/10/16 07:17:29;;;;;;;5.63;1.80;;;9.60;99.90;;;;;;5004226;28;20100;-72
2021/10/16 07:19:55;;;;;;;8.10;1.63;;;9.60;99.90;;;;;;5022346;28;20116;-71
2021/10/16 07:22:21;;;;;;;7.43;2.15;;;9.70;99.90;;;;;;4998294;28;20112;-72
2021/10/16 07:24:47;;;;;;;5.30;1.95;;;9.70;99.90;;;;;;5011284;28;20480;-71
2021/10/16 07:27:14;;;;;;;6.18;1.70;;;9.70;99.90;;;;;;5005395;28;20029;-71
2021/10/16 07:29:40;;;;;;;7.20;2.28;;;9.80;99.90;;;;;;5019919;28;20060;-71
2021/10/16 07:32:06;;;;;;;11.10;2.13;;;9.80;99.90;;;;;;5009024;28;20031;-72
2021/10/16 07:34:31;;;;;;;6.30;2.40;;;9.80;99.90;;;;;;5019255;28;20037;-72
2021/10/16 07:36:57;;;;;;;7.68;2.33;;;9.80;99.90;;;;;;5008830;28;20103;-71
2021/10/16 07:39:23;;;;;;;7.95;2.42;;;9.80;99.90;;;;;;5016900;28;20480;-72
2021/10/16 07:41:49;;;;;;;7.85;2.65;;;9.80;99.90;;;;;;5006205;28;20034;-71
2021/10/16 07:44:16;;;;;;;6.95;2.60;;;9.80;99.90;;;;;;5018243;28;20071;-71
2021/10/16 07:46:43;;;;;;;6.13;2.15;;;9.90;99.90;;;;;;5013781;28;20539;-71
2021/10/16 07:49:09;;;;;;;8.63;2.33;;;9.80;99.90;;;;;;5022067;28;20076;-71
2021/10/16 07:51:36;;;;;;;6.25;1.98;;;9.90;99.90;;;;;;5027084;28;20029;-71
2021/10/16 07:54:01;;;;;;;6.30;2.50;;;9.90;99.90;;;;;;5024081;28;20070;-73
2021/10/16 07:56:27;;;;;;;5.20;1.75;;;9.90;99.90;;;;;;4996702;28;20054;-72
2021/10/16 07:58:53;;;;;;;4.30;1.83;;;10.00;99.90;;;;;;5013586;28;20030;-73
2021/10/16 08:01:19;;;;;;;5.25;1.92;;;10.00;99.90;;;;;;4998400;28;20030;-71
2021/10/16 08:03:45;;;;;;;4.95;1.55;;;10.00;99.90;;;;;;5020423;28;20029;-72
2021/10/16 08:06:11;;;;;;;6.72;2.13;;;10.10;99.90;;;;;;5018117;28;20038;-72
2021/10/16 08:08:37;;;;;;;9.77;2.00;;;10.10;99.90;;;;;;5017496;28;20026;-72
2021/10/16 08:11:03;;;;;;;5.28;2.10;;;10.10;99.90;;;;;;5011692;28;20079;-72
2021/10/16 08:13:30;;;;;;;5.47;1.98;;;10.10;99.90;;;;;;5010982;28;20066;-72
2021/10/16 08:15:56;;;;;;;5.70;2.25;;;10.20;99.90;;;;;;5012198;28;20033;-71
2021/10/16 08:18:23;;;;;;;5.25;2.20;;;10.20;99.90;;;;;;5027188;28;20030;-72
2021/10/16 08:20:49;;;;;;;9.15;2.78;;;10.20;99.90;;;;;;5012351;28;20033;-72
2021/10/16 08:23:15;;;;;;;6.88;2.22;;;10.30;99.90;;;;;;5011967;28;20027;-72
2021/10/16 08:25:41;;;;;;;6.07;2.17;;;10.20;99.90;;;;;;5008777;28;20044;-71
2021/10/16 08:28:12;;;;;;;6.60;2.20;;;10.30;99.90;;;;;;5002983;28;20026;-72
2021/10/16 08:30:40;;;;;;;9.00;2.33;;;10.30;99.90;;;;;;5006095;28;20030;-71
2021/10/16 08:33:06;;;;;;;4.63;1.98;;;10.30;99.90;;;;;;5010097;28;20040;-72
2021/10/16 08:35:32;;;;;;;5.40;2.13;;;10.40;99.90;;;;;;5007594;28;20030;-71
2021/10/16 08:37:58;;;;;;;4.75;2.28;;;10.50;99.90;;;;;;5014276;28;20518;-72
2021/10/16 08:40:25;;;;;;;4.28;1.90;;;10.50;99.90;;;;;;5009897;28;20073;-72
2021/10/16 08:42:53;;;;;;;6.28;2.33;;;10.60;99.90;;;;;;5005523;28;20098;-72
2021/10/16 08:45:18;;;;;;;6.25;2.47;;;10.60;99.90;;;;;;5003942;28;20513;-72
2021/10/16 08:47:47;;;;;;;4.55;1.98;;;10.70;99.90;;;;;;5016981;28;20072;-73
2021/10/16 08:50:13;;;;;;;6.57;2.50;;;10.70;99.90;;;;;;5021687;28;20033;-72
2021/10/16 08:52:40;;;;;;;5.05;1.80;;;10.80;99.90;;;;;;5008192;28;20040;-73
2021/10/16 08:55:08;;;;;;;6.53;2.28;;;10.90;99.90;;;;;;5010594;28;20021;-72
2021/10/16 08:57:38;;;;;;;5.78;2.58;;;10.90;99.90;;;;;;5016612;28;20034;-73
2021/10/16 09:00:42;;;;;;;6.80;2.10;;;11.00;99.90;;;;;;5007028;28;20072;-72
2021/10/16 09:03:31;;;;;;;9.48;2.20;;;11.00;99.90;;;;;;5011417;28;20041;-75
2021/10/16 09:06:27;;;;;;;4.05;1.92;;;11.10;99.90;;;;;;5023346;28;20057;-73
2021/10/16 09:09:09;;;;;;;8.38;2.35;;;11.10;99.90;;;;;;5023019;28;20080;-73
2021/10/16 09:11:37;;;;;;;6.25;1.98;;;11.20;99.90;;;;;;5017932;28;20025;-73
2021/10/16 09:14:06;;;;;;;6.03;1.70;;;11.20;99.90;;;;;;5013892;28;20632;-74
2021/10/16 09:16:42;;;;;;;3.00;1.70;;;11.30;99.90;;;;;;5019643;28;20027;-74
2021/10/16 09:19:29;;;;;;;4.72;2.08;;;11.30;99.90;;;;;;5007968;28;20088;-72
2021/10/16 09:22:04;;;;;;;8.93;2.55;;;11.30;99.90;;;;;;5009115;28;20118;-73
2021/10/16 09:24:52;;;;;;;7.07;2.85;;;11.30;99.90;;;;;;5003202;28;20026;-73
2021/10/16 09:27:22;;;;;;;6.90;2.22;;;11.30;99.90;;;;;;5011011;28;20431;-73
2021/10/16 09:30:04;;;;;;;6.80;2.70;;;11.40;99.90;;;;;;5021626;28;20406;-72
2021/10/16 09:32:29;;;;;;;5.97;2.17;;;11.60;99.90;;;;;;5008241;28;20087;-73
2021/10/16 09:35:00;;;;;;;8.05;2.00;;;11.70;99.90;;;;;;5008292;28;20105;-72
2021/10/16 09:37:26;;;;;;;8.93;2.58;;;11.70;99.90;;;;;;5019458;28;20026;-72
2021/10/16 09:39:55;;;;;;;7.07;1.98;;;11.70;99.10;;;;;;5007213;28;20034;-73
2021/10/16 09:42:30;;;;;;;6.28;2.13;;;11.70;99.90;;;;;;5018682;28;20053;-74
2021/10/16 09:45:01;;;;;;;7.72;2.40;;;11.70;99.90;;;;;;5009348;28;20079;-73
2021/10/16 09:47:27;;;;;;;7.47;2.00;;;11.70;99.90;;;;;;5003142;28;20088;-72
2021/10/16 09:50:02;;;;;;;9.40;2.47;;;11.90;99.90;;;;;;5017089;28;20363;-72
2021/10/16 09:52:45;;;;;;;6.95;2.30;;;12.40;99.90;;;;;;5008741;28;20025;-72
2021/10/16 09:55:13;;;;;;;6.30;1.90;;;13.00;99.90;;;;;;5013141;28;20515;-74
2021/10/16 09:57:44;;;;;;;8.75;2.20;;;13.50;99.90;;;;;;5015822;28;20569;-74
2021/10/16 10:00:11;;;;;;;6.05;1.90;;;14.10;99.00;;;;;;5013882;28;20034;-73
2021/10/16 10:02:39;;;;;;;4.88;1.73;;;15.30;97.30;;;;;;5005284;28;20025;-75
2021/10/16 10:05:08;;;;;;;6.85;1.70;;;16.20;94.60;;;;;;5015827;28;20026;-73
2021/10/16 10:07:35;;;;;;;4.45;1.48;;;17.70;92.60;;;;;;5006994;28;20034;-73
2021/10/16 10:10:04;;;;;;;3.40;1.40;;;19.30;87.20;;;;;;5015144;28;20029;-73
2021/10/16 10:12:29;;;;;;;4.82;1.30;;;20.00;78.10;;;;;;5020266;28;20030;-75
2021/10/16 10:14:56;;;;;;;4.32;1.63;;;20.10;77.70;;;;;;5021712;28;20034;-76
2021/10/16 10:17:28;;;;;;;5.78;1.92;;;20.80;75.20;;;;;;5009158;28;20038;-74
2021/10/16 10:19:59;;;;;;;4.80;1.55;;;21.60;65.20;;;;;;5015421;28;20038;-73
2021/10/16 10:22:25;;;;;;;;;;;22.20;65.30;;;;;;5020805;28;20507;-73
2021/10/16 10:24:54;;;;;;;5.57;1.30;;;22.10;60.40;;;;;;5023970;28;19917;-74
2021/10/16 10:27:23;;;;;;;3.05;1.30;;;21.20;65.30;;;;;;5010592;28;20065;-73
2021/10/16 10:29:50;;;;;;;7.30;1.85;;;20.20;69.10;;;;;;5014709;28;20487;-72
2021/10/16 10:32:17;;;;;;;4.30;1.48;;;18.60;66.60;;;;;;5015882;28;20118;-73
2021/10/16 10:35:03;;;;;;;6.38;2.00;;;17.10;74.40;;;;;;5015555;28;20030;-74
2021/10/16 10:37:49;;;;;;;5.22;1.60;;;16.40;80.20;;;;;;5006854;28;20061;-74
2021/10/16 10:40:15;;;;;;;3.75;1.50;;;15.80;83.90;;;;;;5010867;28;20030;-74
2021/10/16 10:42:43;;;;;;;3.70;1.15;;;15.30;87.20;;;;;;5014088;28;20022;-74
2021/10/16 10:45:33;;;;;;;4.43;1.63;;;15.30;86.20;;;;;;5017806;28;20038;-75
2021/10/16 10:48:05;;;;;;;5.13;1.30;;;15.70;89.10;;;;;;5019557;28;20095;-74
2021/10/16 10:50:47;;;;;;;8.25;2.08;;;16.00;87.90;;;;;;5021472;28;20571;-74
2021/10/16 10:53:21;;;;;;;;;;;16.10;87.00;;;;;;5012389;28;20030;-72
2021/10/16 10:55:54;;;;;;;5.22;2.60;;;16.00;88.40;;;;;;5015582;28;19964;-73
2021/10/16 10:58:21;;;;;;;6.50;1.77;;;15.60;87.10;;;;;;5015227;28;20029;-73
2021/10/16 11:00:48;;;;;;;4.97;1.40;;;15.30;89.00;;;;;;5015470;28;20037;-72
2021/10/16 11:03:29;;;;;;;5.15;1.73;;;15.10;91.10;;;;;;5010209;28;20108;-73
2021/10/16 11:05:56;;;;;;;6.15;1.67;;;14.80;91.50;;;;;;5009978;28;20106;-73
2021/10/16 11:08:23;;;;;;;5.47;1.45;;;14.70;91.80;;;;;;5009577;28;20037;-72
2021/10/16 11:10:57;;;;;;;7.47;1.85;;;14.50;92.20;;;;;;5014463;28;20034;-72
2021/10/16 11:13:23;;;;;;;8.45;2.45;;;14.40;92.50;;;;;;5014442;28;20033;-74
2021/10/16 11:16:00;;;;;;;7.72;1.88;;;14.20;92.70;;;;;;5015447;28;20030;-72
2021/10/16 11:18:27;;;;;;;4.22;1.60;;;14.20;92.80;;;;;;5017377;28;20030;-73
2021/10/16 11:20:54;;;;;;;6.25;1.65;;;14.20;91.10;;;;;;5027429;28;20018;-73
2021/10/16 11:23:24;;;;;;;5.25;1.63;;;14.00;91.90;;;;;;5016200;28;20080;-73
2021/10/16 11:25:59;;;;;;;5.10;2.15;;;14.00;92.30;;;;;;5022302;28;20564;-73
2021/10/16 11:28:26;;;;;;;7.25;1.90;;;13.90;92.60;;;;;;5018427;28;20417;-73
2021/10/16 11:30:56;;;;;;;7.10;1.90;;;13.80;92.70;;;;;;5019465;28;20025;-73
2021/10/16 11:33:24;;;;;;;6.25;1.70;;;13.80;92.90;;;;;;5016507;28;20040;-73
2021/10/16 11:35:52;;;;;;;3.58;1.38;;;13.90;92.40;;;;;;5019721;28;20075;-73
2021/10/16 11:38:22;;;;;;;2.72;1.10;;;13.90;92.80;;;;;;5023755;28;20021;-73
2021/10/16 11:40:53;;;;;;;6.20;1.83;;;13.90;92.70;;;;;;5018796;28;20504;-73
2021/10/16 11:43:26;;;;;;;7.20;1.67;;;14.00;92.80;;;;;;5020323;28;20037;-73
2021/10/16 11:45:55;;;;;;;6.72;1.50;;;13.90;92.10;;;;;;5020647;28;20060;-73
2021/10/16 11:48:23;;;;;;;5.25;1.67;;;13.90;92.40;;;;;;5020274;28;20104;-73
2021/10/16 11:50:51;;;;;;;5.28;1.67;;;13.90;92.00;;;;;;5013330;28;20033;-73
2021/10/16 11:53:18;;;;;;;4.43;1.42;;;13.90;92.30;;;;;;5014570;28;20022;-73
2021/10/16 11:55:56;;;;;;;4.93;1.75;;;13.90;92.70;;;;;;5012891;28;20025;-73
2021/10/16 11:58:24;;;;;;;7.35;2.50;;;13.90;92.10;;;;;;5020562;28;20076;-73
2021/10/16 12:00:52;;;;;;;4.30;1.48;;;14.00;93.00;;;;;;5016494;28;20029;-73
2021/10/16 12:03:25;;;;;;;5.40;1.40;;;14.00;93.00;;;;;;5013827;28;20022;-74
2021/10/16 12:05:53;;;;;;;4.40;1.80;;;14.10;92.40;;;;;;5015889;28;20606;-73
2021/10/16 12:08:21;;;;;;;9.27;1.70;;;14.00;91.20;;;;;;5015299;28;20022;-73
2021/10/16 12:11:05;;;;;;;3.80;1.27;;;14.10;89.30;;;;;;5016876;28;20069;-73
2021/10/16 12:13:38;;;;;;;4.18;1.35;;;14.00;89.10;;;;;;5012720;28;20037;-73
2021/10/16 12:16:15;;;;;;;3.53;1.15;;;14.00;90.90;;;;;;5018956;28;20029;-73
2021/10/16 12:18:56;;;;;;;5.63;1.77;;;14.10;90.50;;;;;;5016192;28;20500;-73
2021/10/16 12:21:29;;;;;;;4.18;1.45;;;14.10;90.30;;;;;;5011832;28;20468;-73
2021/10/16 12:23:56;;;;;;;4.20;1.50;;;14.10;89.80;;;;;;5016342;28;20034;-73
2021/10/16 12:26:24;;;;;;;6.57;1.55;;;14.20;90.10;;;;;;5013546;28;20034;-74
2021/10/16 12:28:52;;;;;;;5.97;1.88;;;14.20;88.20;;;;;;5003738;28;20363;-73
2021/10/16 12:31:19;;;;;;;5.38;1.58;;;14.10;86.30;;;;;;4997296;28;20088;-73
2021/10/16 12:34:01;;;;;;;4.13;1.50;;;14.10;88.40;;;;;;4997316;28;20120;-73
2021/10/16 12:36:34;;;;;;;4.55;1.38;;;14.00;87.20;;;;;;4997334;28;20073;-74
2021/10/16 12:39:02;;;;;;;8.15;3.08;;;13.90;87.70;;;;;;4999163;28;20157;-73
2021/10/16 12:41:36;;;;;;;6.63;2.17;;;13.80;87.80;;;;;;5008883;28;20910;-73
2021/10/16 12:44:35;;;;;;;3.85;1.30;;;13.80;87.80;;;;;;5008984;28;20021;-73
2021/10/16 12:47:08;;;;;;;6.53;1.05;;;13.70;87.70;;;;;;4985898;28;20047;-73
2021/10/16 12:49:47;;;;;;;7.10;1.30;;;13.60;86.50;;;;;;5005814;28;20109;-73
2021/10/16 12:52:29;;;;;;;3.35;1.35;;;13.50;86.80;;;;;;5002600;28;20386;-73
2021/10/16 12:55:00;;;;;;;4.38;1.52;;;13.30;88.30;;;;;;5008123;28;20027;-73